sensor_id;sensor_type;location;lat;lon;timestamp;temperature;humidity
16404;DHT22;8311;50.158;8.642;2023-12-29T00:00:46;19.30;56.80
16404;DHT22;8311;50.158;8.642;2023-12-29T00:03:38;19.30;56.80
16404;DHT22;8311;50.158;8.642;2023-12-29T00:06:32;19.30;56.80
16404;DHT22;8311;50.158;8.642;2023-12-29T00:09:31;19.30;56.80
16404;DHT22;8311;50.158;8.642;2023-12-29T00:12:30;19.30;56.80
16404;DHT22;8311;50.158;8.642;2023-12-29T00:15:23;19.30;56.70
16404;DHT22;8311;50.158;8.642;2023-12-29T00:18:17;19.30;56.80
16404;DHT22;8311;50.158;8.642;2023-12-29T00:21:10;19.30;56.80
16404;DHT22;8311;50.158;8.642;2023-12-29T00:24:04;19.30;56.80
16404;DHT22;8311;50.158;8.642;2023-12-29T00:26:59;19.30;56.80
16404;DHT22;8311;50.158;8.642;2023-12-29T00:29:52;19.30;56.80
16404;DHT22;8311;50.158;8.642;2023-12-29T00:32:46;19.30;56.80
16404;DHT22;8311;50.158;8.642;2023-12-29T00:35:40;19.30;56.80
16404;DHT22;8311;50.158;8.642;2023-12-29T00:38:34;19.30;56.80
16404;DHT22;8311;50.158;8.642;2023-12-29T00:41:27;19.30;56.80
16404;DHT22;8311;50.158;8.642;2023-12-29T00:44:21;19.30;56.80
16404;DHT22;8311;50.158;8.642;2023-12-29T00:47:40;19.30;56.80
16404;DHT22;8311;50.158;8.642;2023-12-29T00:50:34;19.30;56.80
16404;DHT22;8311;50.158;8.642;2023-12-29T00:53:27;19.30;56.80
16404;DHT22;8311;50.158;8.642;2023-12-29T00:56:21;19.30;56.80
16404;DHT22;8311;50.158;8.642;2023-12-29T00:59:14;19.30;56.80
16404;DHT22;8311;50.158;8.642;2023-12-29T01:02:08;19.30;56.80
16404;DHT22;8311;50.158;8.642;2023-12-29T01:05:02;19.30;56.80
16404;DHT22;8311;50.158;8.642;2023-12-29T01:07:55;19.30;56.80
16404;DHT22;8311;50.158;8.642;2023-12-29T01:10:48;19.30;56.80
16404;DHT22;8311;50.158;8.642;2023-12-29T01:13:41;19.30;56.80
16404;DHT22;8311;50.158;8.642;2023-12-29T01:16:34;19.30;56.80
16404;DHT22;8311;50.158;8.642;2023-12-29T01:19:29;19.30;56.80
16404;DHT22;8311;50.158;8.642;2023-12-29T01:22:23;19.30;56.80
16404;DHT22;8311;50.158;8.642;2023-12-29T01:25:15;19.30;56.80
16404;DHT22;8311;50.158;8.642;2023-12-29T01:28:09;19.30;56.80
16404;DHT22;8311;50.158;8.642;2023-12-29T01:31:01;19.30;56.80
16404;DHT22;8311;50.158;8.642;2023-12-29T01:33:54;19.30;56.80
16404;DHT22;8311;50.158;8.642;2023-12-29T01:36:49;19.30;56.70
16404;DHT22;8311;50.158;8.642;2023-12-29T01:39:41;19.30;56.70
16404;DHT22;8311;50.158;8.642;2023-12-29T01:42:34;19.30;56.70
16404;DHT22;8311;50.158;8.642;2023-12-29T01:45:53;19.30;56.80
16404;DHT22;8311;50.158;8.642;2023-12-29T01:48:49;19.30;56.80
16404;DHT22;8311;50.158;8.642;2023-12-29T01:51:44;19.30;56.70
16404;DHT22;8311;50.158;8.642;2023-12-29T01:54:39;19.30;56.80
16404;DHT22;8311;50.158;8.642;2023-12-29T01:57:35;19.30;56.70
16404;DHT22;8311;50.158;8.642;2023-12-29T02:00:31;19.30;57.40
16404;DHT22;8311;50.158;8.642;2023-12-29T02:03:25;19.30;56.80
16404;DHT22;8311;50.158;8.642;2023-12-29T02:06:18;19.30;56.70
16404;DHT22;8311;50.158;8.642;2023-12-29T02:09:13;19.30;56.70
16404;DHT22;8311;50.158;8.642;2023-12-29T02:12:09;19.30;56.80
16404;DHT22;8311;50.158;8.642;2023-12-29T02:15:02;19.30;56.80
16404;DHT22;8311;50.158;8.642;2023-12-29T02:18:00;19.30;56.80
16404;DHT22;8311;50.158;8.642;2023-12-29T02:20:55;19.30;56.70
16404;DHT22;8311;50.158;8.642;2023-12-29T02:23:47;19.30;56.70
16404;DHT22;8311;50.158;8.642;2023-12-29T02:30:30;19.30;56.70
16404;DHT22;8311;50.158;8.642;2023-12-29T02:33:28;19.30;56.80
16404;DHT22;8311;50.158;8.642;2023-12-29T02:36:23;19.30;56.80
16404;DHT22;8311;50.158;8.642;2023-12-29T02:39:16;19.30;56.70
16404;DHT22;8311;50.158;8.642;2023-12-29T02:42:10;19.30;56.70
16404;DHT22;8311;50.158;8.642;2023-12-29T02:45:03;19.30;56.80
16404;DHT22;8311;50.158;8.642;2023-12-29T02:47:58;19.30;56.80
16404;DHT22;8311;50.158;8.642;2023-12-29T02:50:52;19.30;56.80
16404;DHT22;8311;50.158;8.642;2023-12-29T02:57:29;19.30;56.80
16404;DHT22;8311;50.158;8.642;2023-12-29T03:00:23;19.30;56.70
16404;DHT22;8311;50.158;8.642;2023-12-29T03:03:17;19.30;56.70
16404;DHT22;8311;50.158;8.642;2023-12-29T03:06:10;19.30;56.70
16404;DHT22;8311;50.158;8.642;2023-12-29T03:09:04;19.30;56.70
16404;DHT22;8311;50.158;8.642;2023-12-29T03:11:56;19.30;56.70
16404;DHT22;8311;50.158;8.642;2023-12-29T03:14:50;19.30;56.70
16404;DHT22;8311;50.158;8.642;2023-12-29T03:17:42;19.30;56.80
16404;DHT22;8311;50.158;8.642;2023-12-29T03:20:37;19.30;56.70
16404;DHT22;8311;50.158;8.642;2023-12-29T03:23:29;19.30;56.70
16404;DHT22;8311;50.158;8.642;2023-12-29T03:30:08;19.30;56.70
16404;DHT22;8311;50.158;8.642;2023-12-29T03:33:02;19.30;56.70
16404;DHT22;8311;50.158;8.642;2023-12-29T03:35:59;19.30;56.70
16404;DHT22;8311;50.158;8.642;2023-12-29T03:38:52;19.30;56.80
16404;DHT22;8311;50.158;8.642;2023-12-29T03:41:45;19.30;56.80
16404;DHT22;8311;50.158;8.642;2023-12-29T03:44:38;19.30;56.70
16404;DHT22;8311;50.158;8.642;2023-12-29T03:47:31;19.30;56.70
16404;DHT22;8311;50.158;8.642;2023-12-29T03:50:23;19.30;56.70
16404;DHT22;8311;50.158;8.642;2023-12-29T03:57:03;19.30;56.70
16404;DHT22;8311;50.158;8.642;2023-12-29T03:59:56;19.30;56.70
16404;DHT22;8311;50.158;8.642;2023-12-29T04:02:49;19.30;56.70
16404;DHT22;8311;50.158;8.642;2023-12-29T04:05:42;19.30;56.70
16404;DHT22;8311;50.158;8.642;2023-12-29T04:08:35;19.30;56.70
16404;DHT22;8311;50.158;8.642;2023-12-29T04:11:29;19.30;56.70
16404;DHT22;8311;50.158;8.642;2023-12-29T04:14:23;19.20;56.70
16404;DHT22;8311;50.158;8.642;2023-12-29T04:17:16;19.30;56.80
16404;DHT22;8311;50.158;8.642;2023-12-29T04:20:09;19.30;56.70
16404;DHT22;8311;50.158;8.642;2023-12-29T04:23:03;19.30;56.70
16404;DHT22;8311;50.158;8.642;2023-12-29T04:25:57;19.20;56.70
16404;DHT22;8311;50.158;8.642;2023-12-29T04:28:51;19.30;56.70
16404;DHT22;8311;50.158;8.642;2023-12-29T04:31:45;19.30;56.70
16404;DHT22;8311;50.158;8.642;2023-12-29T04:34:39;19.30;56.70
16404;DHT22;8311;50.158;8.642;2023-12-29T04:37:33;19.30;56.70
16404;DHT22;8311;50.158;8.642;2023-12-29T04:40:26;19.20;56.60
16404;DHT22;8311;50.158;8.642;2023-12-29T04:47:05;19.30;56.70
16404;DHT22;8311;50.158;8.642;2023-12-29T04:49:59;19.30;56.70
16404;DHT22;8311;50.158;8.642;2023-12-29T04:52:52;19.30;56.70
16404;DHT22;8311;50.158;8.642;2023-12-29T04:55:45;19.30;56.70
16404;DHT22;8311;50.158;8.642;2023-12-29T04:58:38;19.20;56.70
16404;DHT22;8311;50.158;8.642;2023-12-29T05:01:31;19.30;56.70
16404;DHT22;8311;50.158;8.642;2023-12-29T05:04:25;19.20;56.70
16404;DHT22;8311;50.158;8.642;2023-12-29T05:07:19;19.30;56.70
16404;DHT22;8311;50.158;8.642;2023-12-29T05:10:12;19.30;56.70
16404;DHT22;8311;50.158;8.642;2023-12-29T05:13:06;19.20;56.60
16404;DHT22;8311;50.158;8.642;2023-12-29T05:15:58;19.20;56.60
16404;DHT22;8311;50.158;8.642;2023-12-29T05:18:52;19.30;56.70
16404;DHT22;8311;50.158;8.642;2023-12-29T05:21:46;19.20;56.60
16404;DHT22;8311;50.158;8.642;2023-12-29T05:24:43;19.20;56.60
16404;DHT22;8311;50.158;8.642;2023-12-29T05:27:37;19.20;56.60
16404;DHT22;8311;50.158;8.642;2023-12-29T05:30:30;19.30;56.70
16404;DHT22;8311;50.158;8.642;2023-12-29T05:33:24;19.20;56.60
16404;DHT22;8311;50.158;8.642;2023-12-29T05:36:18;19.20;56.60
16404;DHT22;8311;50.158;8.642;2023-12-29T05:39:12;19.20;56.60
16404;DHT22;8311;50.158;8.642;2023-12-29T05:42:05;19.20;56.60
16404;DHT22;8311;50.158;8.642;2023-12-29T05:44:58;19.20;56.60
16404;DHT22;8311;50.158;8.642;2023-12-29T05:47:51;19.30;56.70
16404;DHT22;8311;50.158;8.642;2023-12-29T05:50:44;19.20;56.60
16404;DHT22;8311;50.158;8.642;2023-12-29T05:53:38;19.20;57.20
16404;DHT22;8311;50.158;8.642;2023-12-29T05:56:33;19.20;56.60
16404;DHT22;8311;50.158;8.642;2023-12-29T05:59:27;19.20;56.60
16404;DHT22;8311;50.158;8.642;2023-12-29T06:02:20;19.20;56.60
16404;DHT22;8311;50.158;8.642;2023-12-29T06:05:14;19.20;56.60
16404;DHT22;8311;50.158;8.642;2023-12-29T06:08:07;19.20;56.60
16404;DHT22;8311;50.158;8.642;2023-12-29T06:11:00;19.20;56.60
16404;DHT22;8311;50.158;8.642;2023-12-29T06:13:54;19.20;56.60
16404;DHT22;8311;50.158;8.642;2023-12-29T06:16:48;19.20;56.60
16404;DHT22;8311;50.158;8.642;2023-12-29T06:19:41;19.20;56.60
16404;DHT22;8311;50.158;8.642;2023-12-29T06:22:39;19.20;56.60
16404;DHT22;8311;50.158;8.642;2023-12-29T06:25:32;19.20;57.20
16404;DHT22;8311;50.158;8.642;2023-12-29T06:28:27;19.20;57.20
16404;DHT22;8311;50.158;8.642;2023-12-29T06:35:07;19.20;56.60
16404;DHT22;8311;50.158;8.642;2023-12-29T06:38:02;19.20;56.60
16404;DHT22;8311;50.158;8.642;2023-12-29T06:40:56;19.20;56.60
16404;DHT22;8311;50.158;8.642;2023-12-29T06:43:50;19.20;56.60
16404;DHT22;8311;50.158;8.642;2023-12-29T06:50:29;19.20;56.60
16404;DHT22;8311;50.158;8.642;2023-12-29T06:53:23;19.20;56.60
16404;DHT22;8311;50.158;8.642;2023-12-29T06:56:16;19.20;56.60
16404;DHT22;8311;50.158;8.642;2023-12-29T06:59:10;19.20;56.60
16404;DHT22;8311;50.158;8.642;2023-12-29T07:02:03;19.20;56.60
16404;DHT22;8311;50.158;8.642;2023-12-29T07:04:55;19.20;56.60
16404;DHT22;8311;50.158;8.642;2023-12-29T07:07:50;19.20;56.60
16404;DHT22;8311;50.158;8.642;2023-12-29T07:10:44;19.20;56.60
16404;DHT22;8311;50.158;8.642;2023-12-29T07:13:42;19.20;56.60
16404;DHT22;8311;50.158;8.642;2023-12-29T07:16:35;19.20;56.60
16404;DHT22;8311;50.158;8.642;2023-12-29T07:19:28;19.20;56.60
16404;DHT22;8311;50.158;8.642;2023-12-29T07:22:29;19.20;56.50
16404;DHT22;8311;50.158;8.642;2023-12-29T07:25:25;19.20;56.60
16404;DHT22;8311;50.158;8.642;2023-12-29T07:28:18;19.20;56.60
16404;DHT22;8311;50.158;8.642;2023-12-29T07:31:11;19.20;56.60
16404;DHT22;8311;50.158;8.642;2023-12-29T07:34:05;19.20;56.60
16404;DHT22;8311;50.158;8.642;2023-12-29T07:36:58;19.20;56.60
16404;DHT22;8311;50.158;8.642;2023-12-29T07:39:51;19.20;56.60
16404;DHT22;8311;50.158;8.642;2023-12-29T07:42:46;19.20;56.50
16404;DHT22;8311;50.158;8.642;2023-12-29T07:45:42;19.20;56.60
16404;DHT22;8311;50.158;8.642;2023-12-29T07:48:36;19.20;56.60
16404;DHT22;8311;50.158;8.642;2023-12-29T07:51:30;19.20;56.60
16404;DHT22;8311;50.158;8.642;2023-12-29T07:54:23;19.20;56.60
16404;DHT22;8311;50.158;8.642;2023-12-29T07:57:16;19.20;56.50
16404;DHT22;8311;50.158;8.642;2023-12-29T08:00:11;19.20;56.60
16404;DHT22;8311;50.158;8.642;2023-12-29T08:03:05;19.20;56.60
16404;DHT22;8311;50.158;8.642;2023-12-29T08:05:59;19.20;56.60
16404;DHT22;8311;50.158;8.642;2023-12-29T08:08:52;19.20;56.60
16404;DHT22;8311;50.158;8.642;2023-12-29T08:11:45;19.20;56.60
16404;DHT22;8311;50.158;8.642;2023-12-29T08:14:38;19.20;56.50
16404;DHT22;8311;50.158;8.642;2023-12-29T08:17:33;19.20;56.60
16404;DHT22;8311;50.158;8.642;2023-12-29T08:20:27;19.20;56.60
16404;DHT22;8311;50.158;8.642;2023-12-29T08:23:20;19.20;56.60
16404;DHT22;8311;50.158;8.642;2023-12-29T08:26:14;19.20;56.50
16404;DHT22;8311;50.158;8.642;2023-12-29T08:29:08;19.20;56.60
16404;DHT22;8311;50.158;8.642;2023-12-29T08:32:01;19.20;56.60
16404;DHT22;8311;50.158;8.642;2023-12-29T08:34:55;19.20;56.60
16404;DHT22;8311;50.158;8.642;2023-12-29T08:37:48;19.20;56.60
16404;DHT22;8311;50.158;8.642;2023-12-29T08:41:06;19.20;56.70
16404;DHT22;8311;50.158;8.642;2023-12-29T08:43:59;19.20;56.50
16404;DHT22;8311;50.158;8.642;2023-12-29T08:46:52;19.20;56.50
16404;DHT22;8311;50.158;8.642;2023-12-29T08:49:46;19.20;56.60
16404;DHT22;8311;50.158;8.642;2023-12-29T08:52:42;19.20;56.50
16404;DHT22;8311;50.158;8.642;2023-12-29T08:55:36;19.20;56.50
16404;DHT22;8311;50.158;8.642;2023-12-29T08:58:31;19.20;56.60
16404;DHT22;8311;50.158;8.642;2023-12-29T09:01:24;19.20;56.50
16404;DHT22;8311;50.158;8.642;2023-12-29T09:04:17;19.20;56.60
16404;DHT22;8311;50.158;8.642;2023-12-29T09:07:10;19.20;56.50
16404;DHT22;8311;50.158;8.642;2023-12-29T09:10:06;19.20;56.60
16404;DHT22;8311;50.158;8.642;2023-12-29T09:13:02;19.20;56.60
16404;DHT22;8311;50.158;8.642;2023-12-29T09:15:56;19.20;56.60
16404;DHT22;8311;50.158;8.642;2023-12-29T09:18:49;19.20;56.50
16404;DHT22;8311;50.158;8.642;2023-12-29T09:21:43;19.20;56.60
16404;DHT22;8311;50.158;8.642;2023-12-29T09:24:37;19.20;56.60
16404;DHT22;8311;50.158;8.642;2023-12-29T09:31:16;19.20;56.60
16404;DHT22;8311;50.158;8.642;2023-12-29T09:34:10;19.20;56.50
16404;DHT22;8311;50.158;8.642;2023-12-29T09:37:03;19.20;56.60
16404;DHT22;8311;50.158;8.642;2023-12-29T09:39:56;19.20;56.50
16404;DHT22;8311;50.158;8.642;2023-12-29T09:42:49;19.20;56.50
16404;DHT22;8311;50.158;8.642;2023-12-29T09:45:43;19.20;56.50
16404;DHT22;8311;50.158;8.642;2023-12-29T09:48:41;19.20;56.50
16404;DHT22;8311;50.158;8.642;2023-12-29T09:51:39;19.20;56.50
16404;DHT22;8311;50.158;8.642;2023-12-29T09:54:34;19.20;56.60
16404;DHT22;8311;50.158;8.642;2023-12-29T09:57:28;19.20;56.60
16404;DHT22;8311;50.158;8.642;2023-12-29T10:00:21;19.20;56.50
16404;DHT22;8311;50.158;8.642;2023-12-29T10:03:14;19.20;56.50
16404;DHT22;8311;50.158;8.642;2023-12-29T10:06:09;19.20;56.50
16404;DHT22;8311;50.158;8.642;2023-12-29T10:09:07;19.20;56.50
16404;DHT22;8311;50.158;8.642;2023-12-29T10:12:04;19.20;56.50
16404;DHT22;8311;50.158;8.642;2023-12-29T10:15:04;19.20;56.60
16404;DHT22;8311;50.158;8.642;2023-12-29T10:18:07;19.20;56.50
16404;DHT22;8311;50.158;8.642;2023-12-29T10:21:11;19.20;56.50
16404;DHT22;8311;50.158;8.642;2023-12-29T10:24:16;19.20;56.50
16404;DHT22;8311;50.158;8.642;2023-12-29T10:27:10;19.20;56.50
16404;DHT22;8311;50.158;8.642;2023-12-29T10:30:04;19.20;56.50
16404;DHT22;8311;50.158;8.642;2023-12-29T10:32:58;19.20;56.50
16404;DHT22;8311;50.158;8.642;2023-12-29T10:35:57;19.20;56.50
16404;DHT22;8311;50.158;8.642;2023-12-29T10:39:06;19.20;56.50
16404;DHT22;8311;50.158;8.642;2023-12-29T10:42:03;19.20;56.50
16404;DHT22;8311;50.158;8.642;2023-12-29T10:48:42;19.20;56.50
16404;DHT22;8311;50.158;8.642;2023-12-29T10:51:36;19.20;56.60
16404;DHT22;8311;50.158;8.642;2023-12-29T10:54:32;19.10;56.50
16404;DHT22;8311;50.158;8.642;2023-12-29T10:57:25;19.20;56.50
16404;DHT22;8311;50.158;8.642;2023-12-29T11:00:29;19.20;56.50
16404;DHT22;8311;50.158;8.642;2023-12-29T11:03:22;19.20;56.50
16404;DHT22;8311;50.158;8.642;2023-12-29T11:06:16;19.20;56.50
16404;DHT22;8311;50.158;8.642;2023-12-29T11:09:10;19.20;56.50
16404;DHT22;8311;50.158;8.642;2023-12-29T11:12:05;19.20;56.50
16404;DHT22;8311;50.158;8.642;2023-12-29T11:14:58;19.10;56.50
16404;DHT22;8311;50.158;8.642;2023-12-29T11:17:53;19.10;56.50
16404;DHT22;8311;50.158;8.642;2023-12-29T11:20:49;19.10;56.50
16404;DHT22;8311;50.158;8.642;2023-12-29T11:23:42;19.20;56.50
16404;DHT22;8311;50.158;8.642;2023-12-29T11:26:36;19.20;56.50
16404;DHT22;8311;50.158;8.642;2023-12-29T11:29:31;19.20;56.50
16404;DHT22;8311;50.158;8.642;2023-12-29T11:32:30;19.10;56.50
16404;DHT22;8311;50.158;8.642;2023-12-29T11:35:28;19.20;56.50
16404;DHT22;8311;50.158;8.642;2023-12-29T11:38:35;19.20;56.50
16404;DHT22;8311;50.158;8.642;2023-12-29T11:45:28;19.10;56.40
16404;DHT22;8311;50.158;8.642;2023-12-29T11:51:56;19.10;56.50
16404;DHT22;8311;50.158;8.642;2023-12-29T11:54:49;19.10;56.40
16404;DHT22;8311;50.158;8.642;2023-12-29T11:57:43;19.20;56.50
16404;DHT22;8311;50.158;8.642;2023-12-29T12:00:45;19.10;56.50
16404;DHT22;8311;50.158;8.642;2023-12-29T12:03:39;19.10;56.40
16404;DHT22;8311;50.158;8.642;2023-12-29T12:06:39;19.20;56.50
16404;DHT22;8311;50.158;8.642;2023-12-29T12:09:33;19.10;56.40
16404;DHT22;8311;50.158;8.642;2023-12-29T12:12:40;19.10;56.40
16404;DHT22;8311;50.158;8.642;2023-12-29T12:15:34;19.10;56.40
16404;DHT22;8311;50.158;8.642;2023-12-29T12:18:30;19.10;56.40
16404;DHT22;8311;50.158;8.642;2023-12-29T12:21:25;19.10;56.40
16404;DHT22;8311;50.158;8.642;2023-12-29T12:24:19;19.10;56.40
16404;DHT22;8311;50.158;8.642;2023-12-29T12:27:12;19.10;56.40
16404;DHT22;8311;50.158;8.642;2023-12-29T12:30:07;19.20;56.50
16404;DHT22;8311;50.158;8.642;2023-12-29T12:33:03;19.10;56.40
16404;DHT22;8311;50.158;8.642;2023-12-29T12:36:00;19.10;56.40
16404;DHT22;8311;50.158;8.642;2023-12-29T12:38:54;19.10;56.40
16404;DHT22;8311;50.158;8.642;2023-12-29T12:41:47;19.10;56.50
16404;DHT22;8311;50.158;8.642;2023-12-29T12:45:12;19.20;56.50
16404;DHT22;8311;50.158;8.642;2023-12-29T12:48:13;19.20;56.40
16404;DHT22;8311;50.158;8.642;2023-12-29T12:51:13;19.10;56.40
16404;DHT22;8311;50.158;8.642;2023-12-29T12:54:06;19.10;56.40
16404;DHT22;8311;50.158;8.642;2023-12-29T12:57:02;19.10;56.40
16404;DHT22;8311;50.158;8.642;2023-12-29T12:59:56;19.10;56.40
16404;DHT22;8311;50.158;8.642;2023-12-29T13:02:50;19.20;56.40
16404;DHT22;8311;50.158;8.642;2023-12-29T13:05:43;19.10;56.40
16404;DHT22;8311;50.158;8.642;2023-12-29T13:08:39;19.10;56.40
16404;DHT22;8311;50.158;8.642;2023-12-29T13:11:34;19.20;56.40
16404;DHT22;8311;50.158;8.642;2023-12-29T13:14:27;19.10;56.40
16404;DHT22;8311;50.158;8.642;2023-12-29T13:17:20;19.10;56.40
16404;DHT22;8311;50.158;8.642;2023-12-29T13:20:15;19.10;56.40
16404;DHT22;8311;50.158;8.642;2023-12-29T13:23:08;19.20;56.40
16404;DHT22;8311;50.158;8.642;2023-12-29T13:26:05;19.10;56.40
16404;DHT22;8311;50.158;8.642;2023-12-29T13:29:00;19.20;56.40
16404;DHT22;8311;50.158;8.642;2023-12-29T13:31:55;19.10;56.40
16404;DHT22;8311;50.158;8.642;2023-12-29T13:34:53;19.10;56.40
16404;DHT22;8311;50.158;8.642;2023-12-29T13:37:51;19.20;56.40
16404;DHT22;8311;50.158;8.642;2023-12-29T13:40:53;19.20;56.40
16404;DHT22;8311;50.158;8.642;2023-12-29T13:43:50;19.10;56.40
16404;DHT22;8311;50.158;8.642;2023-12-29T13:46:45;19.20;56.40
16404;DHT22;8311;50.158;8.642;2023-12-29T13:49:40;19.10;56.40
16404;DHT22;8311;50.158;8.642;2023-12-29T13:52:36;19.20;56.40
16404;DHT22;8311;50.158;8.642;2023-12-29T13:55:29;19.10;56.40
16404;DHT22;8311;50.158;8.642;2023-12-29T13:58:23;19.10;56.40
16404;DHT22;8311;50.158;8.642;2023-12-29T14:01:18;19.20;56.40
16404;DHT22;8311;50.158;8.642;2023-12-29T14:04:11;19.10;56.40
16404;DHT22;8311;50.158;8.642;2023-12-29T14:07:10;19.10;56.40
16404;DHT22;8311;50.158;8.642;2023-12-29T14:10:05;19.20;56.40
16404;DHT22;8311;50.158;8.642;2023-12-29T14:13:05;19.10;56.40
16404;DHT22;8311;50.158;8.642;2023-12-29T14:15:58;19.10;56.40
16404;DHT22;8311;50.158;8.642;2023-12-29T14:18:56;19.10;56.40
16404;DHT22;8311;50.158;8.642;2023-12-29T14:21:53;19.20;56.40
16404;DHT22;8311;50.158;8.642;2023-12-29T14:24:59;19.20;56.40
16404;DHT22;8311;50.158;8.642;2023-12-29T14:27:53;19.10;56.40
16404;DHT22;8311;50.158;8.642;2023-12-29T14:30:46;19.10;56.40
16404;DHT22;8311;50.158;8.642;2023-12-29T14:33:39;19.10;56.40
16404;DHT22;8311;50.158;8.642;2023-12-29T14:36:35;19.10;56.40
16404;DHT22;8311;50.158;8.642;2023-12-29T14:39:28;19.10;56.40
16404;DHT22;8311;50.158;8.642;2023-12-29T14:42:21;19.10;56.40
16404;DHT22;8311;50.158;8.642;2023-12-29T14:48:58;19.20;56.40
16404;DHT22;8311;50.158;8.642;2023-12-29T14:51:52;19.20;56.40
16404;DHT22;8311;50.158;8.642;2023-12-29T14:54:49;19.10;56.30
16404;DHT22;8311;50.158;8.642;2023-12-29T14:57:42;19.10;56.40
16404;DHT22;8311;50.158;8.642;2023-12-29T15:00:36;19.10;56.40
16404;DHT22;8311;50.158;8.642;2023-12-29T15:03:29;19.10;56.40
16404;DHT22;8311;50.158;8.642;2023-12-29T15:06:22;19.20;56.40
16404;DHT22;8311;50.158;8.642;2023-12-29T15:09:16;19.20;56.40
16404;DHT22;8311;50.158;8.642;2023-12-29T15:12:10;19.10;56.90
16404;DHT22;8311;50.158;8.642;2023-12-29T15:15:04;19.10;56.30
16404;DHT22;8311;50.158;8.642;2023-12-29T15:17:57;19.10;56.40
16404;DHT22;8311;50.158;8.642;2023-12-29T15:20:51;19.20;56.40
16404;DHT22;8311;50.158;8.642;2023-12-29T15:23:45;19.10;56.40
16404;DHT22;8311;50.158;8.642;2023-12-29T15:26:40;19.10;56.40
16404;DHT22;8311;50.158;8.642;2023-12-29T15:29:33;19.10;56.40
16404;DHT22;8311;50.158;8.642;2023-12-29T15:32:26;19.10;56.40
16404;DHT22;8311;50.158;8.642;2023-12-29T15:35:19;19.10;56.40
16404;DHT22;8311;50.158;8.642;2023-12-29T15:38:12;19.10;56.50
16404;DHT22;8311;50.158;8.642;2023-12-29T15:41:06;19.20;56.40
16404;DHT22;8311;50.158;8.642;2023-12-29T15:44:01;19.10;56.40
16404;DHT22;8311;50.158;8.642;2023-12-29T15:46:56;19.10;56.40
16404;DHT22;8311;50.158;8.642;2023-12-29T15:49:49;19.20;56.40
16404;DHT22;8311;50.158;8.642;2023-12-29T15:52:42;19.20;56.40
16404;DHT22;8311;50.158;8.642;2023-12-29T15:55:36;19.20;56.40
16404;DHT22;8311;50.158;8.642;2023-12-29T15:58:29;19.20;56.40
16404;DHT22;8311;50.158;8.642;2023-12-29T16:01:24;19.10;56.40
16404;DHT22;8311;50.158;8.642;2023-12-29T16:04:19;19.10;56.40
16404;DHT22;8311;50.158;8.642;2023-12-29T16:07:12;19.10;56.40
16404;DHT22;8311;50.158;8.642;2023-12-29T16:13:49;19.10;56.40
16404;DHT22;8311;50.158;8.642;2023-12-29T16:16:43;19.10;56.40
16404;DHT22;8311;50.158;8.642;2023-12-29T16:19:36;19.10;56.40
16404;DHT22;8311;50.158;8.642;2023-12-29T16:22:29;19.10;56.40
16404;DHT22;8311;50.158;8.642;2023-12-29T16:25:23;19.20;56.40
16404;DHT22;8311;50.158;8.642;2023-12-29T16:28:16;19.10;56.40
16404;DHT22;8311;50.158;8.642;2023-12-29T16:34:55;19.10;56.40
16404;DHT22;8311;50.158;8.642;2023-12-29T16:37:48;19.10;56.40
16404;DHT22;8311;50.158;8.642;2023-12-29T16:40:43;19.10;56.40
16404;DHT22;8311;50.158;8.642;2023-12-29T16:43:37;19.10;56.30
16404;DHT22;8311;50.158;8.642;2023-12-29T16:46:30;19.10;56.40
16404;DHT22;8311;50.158;8.642;2023-12-29T16:49:23;19.10;56.40
16404;DHT22;8311;50.158;8.642;2023-12-29T16:52:18;19.10;56.40
16404;DHT22;8311;50.158;8.642;2023-12-29T16:55:11;19.10;56.40
16404;DHT22;8311;50.158;8.642;2023-12-29T16:58:06;19.10;56.30
16404;DHT22;8311;50.158;8.642;2023-12-29T17:00:59;19.10;56.40
16404;DHT22;8311;50.158;8.642;2023-12-29T17:03:52;19.10;56.40
16404;DHT22;8311;50.158;8.642;2023-12-29T17:06:45;19.20;56.40
16404;DHT22;8311;50.158;8.642;2023-12-29T17:09:40;19.10;56.40
16404;DHT22;8311;50.158;8.642;2023-12-29T17:12:34;19.10;56.90
16404;DHT22;8311;50.158;8.642;2023-12-29T17:15:27;19.10;56.40
16404;DHT22;8311;50.158;8.642;2023-12-29T17:18:20;19.10;56.40
16404;DHT22;8311;50.158;8.642;2023-12-29T17:21:14;19.10;56.40
16404;DHT22;8311;50.158;8.642;2023-12-29T17:24:08;19.20;56.40
16404;DHT22;8311;50.158;8.642;2023-12-29T17:30:47;19.10;56.40
16404;DHT22;8311;50.158;8.642;2023-12-29T17:33:40;19.10;56.40
16404;DHT22;8311;50.158;8.642;2023-12-29T17:36:34;19.10;56.40
16404;DHT22;8311;50.158;8.642;2023-12-29T17:39:27;19.10;56.40
16404;DHT22;8311;50.158;8.642;2023-12-29T17:42:21;19.10;56.30
16404;DHT22;8311;50.158;8.642;2023-12-29T17:45:13;19.10;56.40
16404;DHT22;8311;50.158;8.642;2023-12-29T17:48:09;19.10;56.40
16404;DHT22;8311;50.158;8.642;2023-12-29T17:51:01;19.10;56.40
16404;DHT22;8311;50.158;8.642;2023-12-29T17:53:55;19.10;56.40
16404;DHT22;8311;50.158;8.642;2023-12-29T17:56:48;19.10;56.40
16404;DHT22;8311;50.158;8.642;2023-12-29T17:59:42;19.10;56.40
16404;DHT22;8311;50.158;8.642;2023-12-29T18:02:34;19.10;56.40
16404;DHT22;8311;50.158;8.642;2023-12-29T18:05:29;19.10;56.40
16404;DHT22;8311;50.158;8.642;2023-12-29T18:08:22;19.20;56.40
16404;DHT22;8311;50.158;8.642;2023-12-29T18:11:17;19.10;56.40
16404;DHT22;8311;50.158;8.642;2023-12-29T18:14:10;19.10;56.40
16404;DHT22;8311;50.158;8.642;2023-12-29T18:17:03;19.10;56.40
16404;DHT22;8311;50.158;8.642;2023-12-29T18:20:02;19.10;56.40
16404;DHT22;8311;50.158;8.642;2023-12-29T18:22:57;19.10;56.40
16404;DHT22;8311;50.158;8.642;2023-12-29T18:25:50;19.10;56.90
16404;DHT22;8311;50.158;8.642;2023-12-29T18:28:45;19.10;56.30
16404;DHT22;8311;50.158;8.642;2023-12-29T18:31:42;19.10;56.30
16404;DHT22;8311;50.158;8.642;2023-12-29T18:34:37;19.10;56.30
16404;DHT22;8311;50.158;8.642;2023-12-29T18:37:30;19.10;56.30
16404;DHT22;8311;50.158;8.642;2023-12-29T18:40:25;19.10;56.40
16404;DHT22;8311;50.158;8.642;2023-12-29T18:43:18;19.10;56.30
16404;DHT22;8311;50.158;8.642;2023-12-29T18:46:13;19.20;56.40
16404;DHT22;8311;50.158;8.642;2023-12-29T18:49:06;19.10;56.30
16404;DHT22;8311;50.158;8.642;2023-12-29T18:52:02;19.10;56.30
16404;DHT22;8311;50.158;8.642;2023-12-29T18:54:56;19.10;56.30
16404;DHT22;8311;50.158;8.642;2023-12-29T18:57:50;19.10;56.30
16404;DHT22;8311;50.158;8.642;2023-12-29T19:00:43;19.20;56.40
16404;DHT22;8311;50.158;8.642;2023-12-29T19:03:37;19.10;56.40
16404;DHT22;8311;50.158;8.642;2023-12-29T19:06:31;19.10;56.30
16404;DHT22;8311;50.158;8.642;2023-12-29T19:09:25;19.20;56.40
16404;DHT22;8311;50.158;8.642;2023-12-29T19:12:18;19.10;56.30
16404;DHT22;8311;50.158;8.642;2023-12-29T19:15:13;19.10;56.40
16404;DHT22;8311;50.158;8.642;2023-12-29T19:18:06;19.10;56.40
16404;DHT22;8311;50.158;8.642;2023-12-29T19:21:02;19.10;56.30
16404;DHT22;8311;50.158;8.642;2023-12-29T19:23:55;19.10;56.40
16404;DHT22;8311;50.158;8.642;2023-12-29T19:26:52;19.10;56.30
16404;DHT22;8311;50.158;8.642;2023-12-29T19:29:45;19.10;56.30
16404;DHT22;8311;50.158;8.642;2023-12-29T19:32:40;19.10;56.30
16404;DHT22;8311;50.158;8.642;2023-12-29T19:35:35;19.20;56.40